createdAt,value
2019-05-30T00:00:14.085Z,3.33
2019-05-30T00:02:28.809Z,3.43
2019-05-30T00:04:58.719Z,4.67
2019-05-30T00:07:28.373Z,3.27
2019-05-30T00:09:58.448Z,4.73
2019-05-30T00:12:28.195Z,3.03
2019-05-30T00:14:58.592Z,3.17
2019-05-30T00:17:28.383Z,5.80
2019-05-30T00:19:58.797Z,4.40
2019-05-30T00:22:28.564Z,2.77
2019-05-30T00:24:58.577Z,3.60
2019-05-30T00:27:28.547Z,3.03
2019-05-30T00:29:59.239Z,2.47
2019-05-30T00:32:29.325Z,2.87
2019-05-30T00:34:59.675Z,4.87
2019-05-30T00:37:29.582Z,2.83
2019-05-30T00:39:59.897Z,3.03
2019-05-30T00:42:29.985Z,3.47
2019-05-30T00:44:59.976Z,5.73
2019-05-30T00:47:29.825Z,3.73
2019-05-30T00:50:00.212Z,4.77
2019-05-30T00:52:30.190Z,4.17
2019-05-30T00:55:00.674Z,4.07
2019-05-30T00:57:30.543Z,1.67
2019-05-30T01:00:00.963Z,3.60
2019-05-30T01:02:30.969Z,3.47
2019-05-30T01:05:00.979Z,3.40
2019-05-30T01:07:31.054Z,3.57
2019-05-30T01:10:01.087Z,1.80
2019-05-30T01:12:30.736Z,1.93
2019-05-30T01:15:01.116Z,2.77
2019-05-30T01:17:31.146Z,3.57
2019-05-30T01:20:01.205Z,2.77
2019-05-30T01:22:31.049Z,2.47
2019-05-30T01:25:01.210Z,2.07
2019-05-30T01:27:31.243Z,4.23
2019-05-30T01:30:01.615Z,2.57
2019-05-30T01:32:31.594Z,3.13
2019-05-30T01:35:02.049Z,4.00
2019-05-30T01:37:32.049Z,2.80
2019-05-30T01:40:04.147Z,1.97
2019-05-30T01:42:34.079Z,2.87
2019-05-30T01:45:06.249Z,2.43
2019-05-30T01:47:36.027Z,4.67
2019-05-30T01:50:10.142Z,2.33
2019-05-30T01:52:39.813Z,1.60
2019-05-30T01:55:10.428Z,1.77
2019-05-30T01:57:40.445Z,4.40
2019-05-30T02:00:20.838Z,2.53
2019-05-30T02:02:44.026Z,2.43
2019-05-30T02:05:14.762Z,3.10
2019-05-30T02:07:44.750Z,2.50
2019-05-30T02:10:15.998Z,1.67
2019-05-30T02:12:45.999Z,1.57
2019-05-30T02:15:15.979Z,2.17
2019-05-30T02:17:45.622Z,4.07
2019-05-30T02:20:15.727Z,2.07
2019-05-30T02:22:45.369Z,2.17
2019-05-30T02:25:16.801Z,4.20
2019-05-30T02:27:46.757Z,2.70
2019-05-30T02:30:17.084Z,1.70
2019-05-30T02:32:46.772Z,3.93
2019-05-30T02:35:16.549Z,1.87
2019-05-30T02:37:46.259Z,3.17
2019-05-30T02:40:17.407Z,2.23
2019-05-30T02:42:47.098Z,2.27
2019-05-30T02:45:17.184Z,3.07
2019-05-30T02:47:46.901Z,2.53
2019-05-30T02:50:17.830Z,2.37
2019-05-30T02:52:47.529Z,2.37
2019-05-30T02:55:17.873Z,1.63
2019-05-30T02:57:47.647Z,3.70
2019-05-30T03:00:18.923Z,2.77
2019-05-30T03:02:48.882Z,2.50
2019-05-30T03:05:18.537Z,3.07
2019-05-30T03:07:48.258Z,2.43
2019-05-30T03:10:18.061Z,2.17
2019-05-30T03:12:47.967Z,2.90
2019-05-30T03:15:18.430Z,2.60
2019-05-30T03:17:48.069Z,3.20
2019-05-30T03:20:22.860Z,2.07
2019-05-30T03:22:50.125Z,3.20
2019-05-30T03:25:20.102Z,1.87
2019-05-30T03:27:49.874Z,2.57
2019-05-30T03:30:27.344Z,3.40
2019-05-30T03:33:29.052Z,1.37
2019-05-30T03:35:29.410Z,1.77
2019-05-30T03:37:54.668Z,3.00
2019-05-30T03:40:25.715Z,3.03
2019-05-30T03:42:55.857Z,1.63
2019-05-30T03:45:27.181Z,3.43
2019-05-30T03:48:00.173Z,4.37
2019-05-30T03:50:31.057Z,2.23
2019-05-30T03:53:00.975Z,2.50
2019-05-30T03:55:34.453Z,2.13
2019-05-30T03:58:10.057Z,2.87
2019-05-30T04:00:52.906Z,3.43
2019-05-30T04:03:41.932Z,1.73
2019-05-30T04:06:20.561Z,2.27
2019-05-30T04:08:53.269Z,2.23
2019-05-30T04:11:26.067Z,3.03
2019-05-30T04:13:59.075Z,2.20
2019-05-30T04:16:28.806Z,3.90
2019-05-30T04:18:58.581Z,4.23
2019-05-30T04:21:28.552Z,1.77
2019-05-30T04:23:58.550Z,2.60
2019-05-30T04:26:28.215Z,3.40
2019-05-30T04:28:57.923Z,3.43
2019-05-30T04:31:27.910Z,3.60
2019-05-30T04:33:57.649Z,3.50
2019-05-30T04:36:27.413Z,5.27
2019-05-30T04:38:57.055Z,2.67
2019-05-30T04:41:26.683Z,1.80
2019-05-30T04:43:56.356Z,5.33
2019-05-30T04:46:26.902Z,1.57
2019-05-30T04:48:56.917Z,2.33
2019-05-30T04:51:26.666Z,2.20
2019-05-30T04:53:56.408Z,1.93
2019-05-30T04:56:26.207Z,3.13
2019-05-30T04:58:56.142Z,2.37
2019-05-30T05:01:26.185Z,2.47
2019-05-30T05:03:56.165Z,3.03
2019-05-30T05:06:25.875Z,2.77
2019-05-30T05:08:55.586Z,2.57
2019-05-30T05:11:25.604Z,4.00
2019-05-30T05:13:55.324Z,3.10
2019-05-30T05:16:34.877Z,2.87
2019-05-30T05:18:56.435Z,3.83
2019-05-30T05:21:26.140Z,3.03
2019-05-30T05:23:55.790Z,2.20
2019-05-30T05:26:25.893Z,1.87
2019-05-30T05:28:55.628Z,2.47
2019-05-30T05:31:25.423Z,4.07
2019-05-30T05:33:57.149Z,3.73
2019-05-30T05:36:26.880Z,3.43
2019-05-30T05:38:58.144Z,3.97
2019-05-30T05:41:28.634Z,5.77
2019-05-30T05:43:58.658Z,4.37
2019-05-30T05:46:28.799Z,3.17
2019-05-30T05:48:59.202Z,3.13
2019-05-30T05:51:29.086Z,3.23
2019-05-30T05:53:59.051Z,3.37
2019-05-30T05:56:29.170Z,2.73
2019-05-30T05:58:59.213Z,3.33
2019-05-30T06:01:30.086Z,2.80
2019-05-30T06:04:12.774Z,2.97
2019-05-30T06:06:31.735Z,2.33
2019-05-30T06:09:01.843Z,4.60
2019-05-30T06:11:31.870Z,2.90
2019-05-30T06:14:07.435Z,3.93
2019-05-30T06:16:37.396Z,3.67
2019-05-30T06:19:07.114Z,2.77
2019-05-30T06:21:36.912Z,3.73
2019-05-30T06:24:06.556Z,2.53
2019-05-30T06:26:36.526Z,3.47
2019-05-30T06:29:06.516Z,2.73
2019-05-30T06:31:36.499Z,2.90
2019-05-30T06:34:06.226Z,3.13
2019-05-30T06:36:36.200Z,4.27
2019-05-30T06:39:08.249Z,2.77
2019-05-30T06:41:37.957Z,5.40
2019-05-30T06:44:07.664Z,2.57
2019-05-30T06:46:37.388Z,4.80
2019-05-30T06:49:07.039Z,3.43
2019-05-30T06:51:36.753Z,2.80
2019-05-30T06:54:06.476Z,5.77
2019-05-30T06:56:36.570Z,3.10
2019-05-30T06:59:06.386Z,3.90
2019-05-30T07:01:36.200Z,2.40
2019-05-30T07:04:06.223Z,2.20
2019-05-30T07:06:36.665Z,1.93
2019-05-30T07:09:08.747Z,3.57
2019-05-30T07:11:38.898Z,1.70
2019-05-30T07:14:09.032Z,2.43
2019-05-30T07:16:38.909Z,2.60
2019-05-30T07:19:08.941Z,3.03
2019-05-30T07:21:38.685Z,3.40
2019-05-30T07:24:08.704Z,3.10
2019-05-30T07:26:38.646Z,1.87
2019-05-30T07:29:08.557Z,2.83
2019-05-30T07:31:38.373Z,3.47
2019-05-30T07:34:08.283Z,3.10
2019-05-30T07:36:38.198Z,3.60
2019-05-30T07:39:08.748Z,3.37
2019-05-30T07:41:38.471Z,2.63
2019-05-30T07:44:09.873Z,3.10
2019-05-30T07:46:39.793Z,2.23
2019-05-30T07:49:10.141Z,3.43
2019-05-30T07:51:39.868Z,2.53
2019-05-30T07:54:09.608Z,2.97
2019-05-30T07:56:40.837Z,2.50
2019-05-30T07:59:10.698Z,2.30
2019-05-30T08:01:40.442Z,2.60
2019-05-30T08:04:10.149Z,2.00
2019-05-30T08:06:39.873Z,1.40
2019-05-30T08:09:09.684Z,1.40
2019-05-30T08:11:39.511Z,1.47
2019-05-30T08:14:09.600Z,2.67
2019-05-30T08:16:39.506Z,4.07
2019-05-30T08:19:09.154Z,2.47
2019-05-30T08:21:38.999Z,1.90
2019-05-30T08:24:08.984Z,1.63
2019-05-30T08:26:39.458Z,3.40
2019-05-30T08:29:09.460Z,2.20
2019-05-30T08:31:39.183Z,4.70
2019-05-30T08:34:09.113Z,2.73
2019-05-30T08:36:39.203Z,2.63
2019-05-30T08:39:09.113Z,2.90
2019-05-30T08:41:39.536Z,2.20
2019-05-30T08:44:09.301Z,1.80
2019-05-30T08:46:39.997Z,2.87
2019-05-30T08:49:09.774Z,2.10
2019-05-30T08:51:40.461Z,2.77
2019-05-30T08:54:13.473Z,3.33
2019-05-30T08:56:41.696Z,2.80
2019-05-30T08:59:11.530Z,1.83
2019-05-30T09:01:42.074Z,2.67
2019-05-30T09:04:12.765Z,2.57
2019-05-30T09:06:42.514Z,2.10
2019-05-30T09:09:12.218Z,2.53
2019-05-30T09:11:42.357Z,4.53
2019-05-30T09:14:12.908Z,2.07
2019-05-30T09:16:42.653Z,2.37
2019-05-30T09:19:12.446Z,2.20
2019-05-30T09:21:43.145Z,2.60
2019-05-30T09:24:12.943Z,1.23
2019-05-30T09:26:46.902Z,1.90
2019-05-30T09:29:14.989Z,3.17
2019-05-30T09:31:44.780Z,2.17
2019-05-30T09:34:14.615Z,6.67
2019-05-30T09:36:44.765Z,2.27
2019-05-30T09:39:15.379Z,3.07
2019-05-30T09:41:45.730Z,2.07
2019-05-30T09:44:15.642Z,2.13
2019-05-30T09:46:46.893Z,2.70
2019-05-30T09:49:16.701Z,1.57
2019-05-30T09:51:47.009Z,4.27
2019-05-30T09:54:17.099Z,1.50
2019-05-30T09:56:48.459Z,2.10
2019-05-30T09:59:18.293Z,2.53
2019-05-30T10:01:48.146Z,2.77
2019-05-30T10:04:18.125Z,3.93
2019-05-30T10:06:48.462Z,1.67
2019-05-30T10:09:18.588Z,3.20
2019-05-30T10:11:49.358Z,2.33
2019-05-30T10:14:19.050Z,2.70
2019-05-30T10:16:53.391Z,2.23
2019-05-30T10:19:20.305Z,2.53
2019-05-30T10:21:51.727Z,2.63
2019-05-30T10:24:21.810Z,3.00
2019-05-30T10:26:51.538Z,2.77
2019-05-30T10:29:21.527Z,3.50
2019-05-30T10:31:51.294Z,2.10
2019-05-30T10:34:20.947Z,2.77
2019-05-30T10:36:51.700Z,3.20
2019-05-30T10:39:21.822Z,1.90
2019-05-30T10:41:51.613Z,4.20
2019-05-30T10:44:21.602Z,3.13
2019-05-30T10:46:52.693Z,2.47
2019-05-30T10:49:34.335Z,4.50
2019-05-30T10:51:58.846Z,2.90
2019-05-30T10:54:25.916Z,3.23
2019-05-30T10:56:55.994Z,4.60
2019-05-30T10:59:25.767Z,2.30
2019-05-30T11:01:56.620Z,2.13
2019-05-30T11:04:26.766Z,2.33
2019-05-30T11:07:10.439Z,2.50
2019-05-30T11:09:34.326Z,3.17
2019-05-30T11:12:04.092Z,3.77
2019-05-30T11:14:33.857Z,2.90
2019-05-30T11:17:03.936Z,2.97
2019-05-30T11:19:34.193Z,2.43
2019-05-30T11:22:03.922Z,1.93
2019-05-30T11:24:33.652Z,1.97
2019-05-30T11:27:03.690Z,1.90
2019-05-30T11:29:33.710Z,2.77
2019-05-30T11:32:03.687Z,2.00
2019-05-30T11:34:33.454Z,3.20
2019-05-30T11:37:18.296Z,1.90
2019-05-30T11:39:35.145Z,3.83
2019-05-30T11:42:05.120Z,1.87
2019-05-30T11:44:35.005Z,2.60
2019-05-30T11:47:04.746Z,2.63
2019-05-30T11:49:34.477Z,2.10
2019-05-30T11:52:04.209Z,2.33
2019-05-30T11:54:34.135Z,1.70
2019-05-30T11:57:04.251Z,5.47
2019-05-30T11:59:33.962Z,4.03
2019-05-30T12:02:03.716Z,2.67
2019-05-30T12:04:33.482Z,2.47
2019-05-30T12:07:03.254Z,2.33
2019-05-30T12:09:32.983Z,1.70
2019-05-30T12:12:02.975Z,3.53
2019-05-30T12:14:32.780Z,2.27
2019-05-30T12:17:03.820Z,3.63
2019-05-30T12:19:33.464Z,2.43
2019-05-30T12:22:05.967Z,2.00
2019-05-30T12:24:35.682Z,2.80
2019-05-30T12:27:05.785Z,4.23
2019-05-30T12:29:35.650Z,1.80
2019-05-30T12:32:08.607Z,2.10
2019-05-30T12:34:38.594Z,1.77
2019-05-30T12:37:08.382Z,1.97
2019-05-30T12:39:40.680Z,4.60
2019-05-30T12:42:10.309Z,4.00
2019-05-30T12:44:40.386Z,3.40
2019-05-30T12:47:10.401Z,3.17
2019-05-30T12:49:40.101Z,2.87
2019-05-30T12:52:10.004Z,2.23
2019-05-30T12:54:39.649Z,4.30
2019-05-30T12:57:09.690Z,2.70
2019-05-30T12:59:39.486Z,1.87
2019-05-30T13:02:09.404Z,2.10
2019-05-30T13:04:39.099Z,2.67
2019-05-30T13:07:08.862Z,2.17
2019-05-30T13:09:38.601Z,2.70
2019-05-30T13:12:15.541Z,3.40
2019-05-30T13:14:48.120Z,1.90
2019-05-30T13:17:17.820Z,2.10
2019-05-30T13:19:47.817Z,2.50
2019-05-30T13:22:17.553Z,2.00
2019-05-30T13:24:47.345Z,2.23
2019-05-30T13:27:17.077Z,3.00
2019-05-30T13:29:47.149Z,2.07
2019-05-30T13:32:17.157Z,3.23
2019-05-30T13:34:47.318Z,2.83
2019-05-30T13:37:18.382Z,2.40
2019-05-30T13:39:48.587Z,4.33
2019-05-30T13:42:18.291Z,2.87
2019-05-30T13:44:47.998Z,2.60
2019-05-30T13:47:17.712Z,3.37
2019-05-30T13:49:47.422Z,5.40
2019-05-30T13:52:17.365Z,2.87
2019-05-30T13:54:47.184Z,5.17
2019-05-30T13:57:17.060Z,4.07
2019-05-30T13:59:54.418Z,2.00
2019-05-30T14:02:24.153Z,2.87
2019-05-30T14:04:55.801Z,3.23
2019-05-30T14:07:25.519Z,2.43
2019-05-30T14:09:55.613Z,3.13
2019-05-30T14:12:25.541Z,2.87
2019-05-30T14:14:55.275Z,3.47
2019-05-30T14:17:25.263Z,5.23
2019-05-30T14:19:55.305Z,4.40
2019-05-30T14:22:28.309Z,2.67
2019-05-30T14:24:58.127Z,3.13
2019-05-30T14:27:28.032Z,5.90
2019-05-30T14:29:57.798Z,2.10
2019-05-30T14:32:27.497Z,2.93
2019-05-30T14:34:57.475Z,3.00
2019-05-30T14:37:27.173Z,2.40
2019-05-30T14:39:56.924Z,4.33
2019-05-30T14:42:26.744Z,4.00
2019-05-30T14:44:56.769Z,2.60
2019-05-30T14:47:26.493Z,5.60
2019-05-30T14:49:56.405Z,2.43
2019-05-30T14:52:26.141Z,2.33
2019-05-30T14:54:55.769Z,3.47
2019-05-30T14:57:25.721Z,3.00
2019-05-30T14:59:55.680Z,3.00
2019-05-30T15:02:25.662Z,3.70
2019-05-30T15:04:55.305Z,6.53
2019-05-30T15:07:25.017Z,4.30
2019-05-30T15:09:54.926Z,3.00
2019-05-30T15:12:26.210Z,3.07
2019-05-30T15:14:56.177Z,3.77
2019-05-30T15:17:25.986Z,3.93
2019-05-30T15:19:55.788Z,3.23
2019-05-30T15:22:25.821Z,3.27
2019-05-30T15:24:55.822Z,3.17
2019-05-30T15:27:25.751Z,4.33
2019-05-30T15:29:55.438Z,6.27
2019-05-30T15:32:25.166Z,4.77
2019-05-30T15:34:54.939Z,3.73
2019-05-30T15:37:24.750Z,3.03
2019-05-30T15:39:54.771Z,4.67
2019-05-30T15:42:24.757Z,4.10
2019-05-30T15:44:54.857Z,4.70
2019-05-30T15:47:24.914Z,3.83
2019-05-30T15:49:54.544Z,4.10
2019-05-30T15:52:24.547Z,4.03
2019-05-30T15:54:54.326Z,3.57
2019-05-30T15:57:24.366Z,3.00
2019-05-30T15:59:54.880Z,3.53
2019-05-30T16:02:24.681Z,3.17
2019-05-30T16:04:54.429Z,3.77
2019-05-30T16:07:24.580Z,4.60
2019-05-30T16:09:54.281Z,3.73
2019-05-30T16:12:24.746Z,3.63
2019-05-30T16:14:54.515Z,3.97
2019-05-30T16:17:24.509Z,4.73
2019-05-30T16:19:54.532Z,5.93
2019-05-30T16:22:24.198Z,4.27
2019-05-30T16:24:54.072Z,3.70
2019-05-30T16:27:23.856Z,4.40
2019-05-30T16:29:53.640Z,6.73
2019-05-30T16:32:23.381Z,4.40
2019-05-30T16:34:55.072Z,5.93
2019-05-30T16:37:24.769Z,3.83
2019-05-30T16:40:05.360Z,3.30
2019-05-30T16:42:26.565Z,3.30
2019-05-30T16:44:56.551Z,4.97
2019-05-30T16:47:26.680Z,4.00
2019-05-30T16:49:56.794Z,3.90
2019-05-30T16:52:27.311Z,4.23
2019-05-30T16:54:57.130Z,4.67
2019-05-30T16:57:26.777Z,4.00
2019-05-30T16:59:57.280Z,3.53
2019-05-30T17:02:27.029Z,3.60
2019-05-30T17:04:56.814Z,4.00
2019-05-30T17:07:27.628Z,3.50
2019-05-30T17:09:57.688Z,3.00
2019-05-30T17:12:27.666Z,3.40
2019-05-30T17:14:57.397Z,3.30
2019-05-30T17:17:27.111Z,3.10
2019-05-30T17:19:56.865Z,3.50
2019-05-30T17:22:29.371Z,5.57
2019-05-30T17:24:58.287Z,3.90
2019-05-30T17:27:27.990Z,4.60
2019-05-30T17:29:57.720Z,3.87
2019-05-30T17:32:28.014Z,4.33
2019-05-30T17:34:57.799Z,4.30
2019-05-30T17:37:28.538Z,4.37
2019-05-30T17:39:58.313Z,4.33
2019-05-30T17:42:29.076Z,6.33
2019-05-30T17:44:59.118Z,4.37
2019-05-30T17:47:29.520Z,4.60
2019-05-30T17:49:59.302Z,4.63
2019-05-30T17:55:43.993Z,6.90
2019-05-30T17:58:13.951Z,5.17
2019-05-30T18:00:44.002Z,5.83
2019-05-30T18:03:14.328Z,4.90
2019-05-30T18:05:44.157Z,4.50
2019-05-30T18:08:13.814Z,5.27
2019-05-30T18:10:53.300Z,4.70
2019-05-30T18:13:15.378Z,4.70
2019-05-30T18:15:45.666Z,4.90
2019-05-30T18:18:15.567Z,4.40
2019-05-30T18:20:48.750Z,4.70
2019-05-30T18:23:18.402Z,4.23
2019-05-30T18:25:48.198Z,4.27
2019-05-30T18:28:18.092Z,4.97
2019-05-30T18:30:48.279Z,5.87
2019-05-30T18:33:18.028Z,5.13
2019-05-30T18:35:52.837Z,5.63
2019-05-30T18:38:30.488Z,5.03
2019-05-30T18:44:28.069Z,5.03
2019-05-30T18:47:16.354Z,5.30
2019-05-30T18:49:49.232Z,5.27
2019-05-30T18:52:56.874Z,4.90
2019-05-30T18:55:38.787Z,4.47
2019-05-30T19:01:16.044Z,4.80
2019-05-30T19:04:15.574Z,4.97
2019-05-30T19:09:37.957Z,5.87
2019-05-30T19:12:53.267Z,5.23
2019-05-30T19:16:13.066Z,4.87
2019-05-30T19:17:43.917Z,5.53
2019-05-30T19:23:45.120Z,4.70
2019-05-30T19:26:16.405Z,6.37
2019-05-30T19:28:52.774Z,4.60
2019-05-30T19:31:24.251Z,4.90
2019-05-30T19:34:02.028Z,4.87
2019-05-30T19:36:34.991Z,8.83
2019-05-30T19:39:08.002Z,5.03
2019-05-30T19:41:51.382Z,5.40
2019-05-30T19:44:11.503Z,5.30
2019-05-30T19:46:44.562Z,6.47
2019-05-30T19:49:15.947Z,5.50
2019-05-30T19:51:50.396Z,6.13
2019-05-30T19:54:20.297Z,6.77
2019-05-30T19:56:50.284Z,6.00
2019-05-30T19:59:20.026Z,5.60
2019-05-30T20:01:50.160Z,6.67
2019-05-30T20:04:19.950Z,7.30
2019-05-30T20:06:49.763Z,7.50
2019-05-30T20:09:19.471Z,7.90
2019-05-30T20:12:02.645Z,8.23
2019-05-30T20:14:30.912Z,8.27
2019-05-30T20:17:05.934Z,8.37
2019-05-30T20:19:37.820Z,8.47
2019-05-30T20:22:07.765Z,8.63
2019-05-30T20:24:38.339Z,9.20
2019-05-30T20:27:12.547Z,8.87
2019-05-30T20:29:45.996Z,9.30
2019-05-30T20:32:15.594Z,8.13
2019-05-30T20:34:52.355Z,9.20
2019-05-30T20:37:23.697Z,9.40
2019-05-30T20:39:53.365Z,9.13
2019-05-30T20:42:26.336Z,9.47
2019-05-30T20:45:09.121Z,8.87
2019-05-30T20:47:42.080Z,9.90
2019-05-30T20:50:18.241Z,9.63
2019-05-30T20:52:49.704Z,9.90
2019-05-30T20:55:19.844Z,9.60
2019-05-30T20:57:49.982Z,9.50
2019-05-30T21:00:23.520Z,9.87
2019-05-30T21:02:53.739Z,10.87
2019-05-30T21:05:23.623Z,10.57
2019-05-30T21:07:55.336Z,10.57
2019-05-30T21:10:25.977Z,11.10
2019-05-30T21:13:10.695Z,11.43
2019-05-30T21:15:41.655Z,10.93
2019-05-30T21:18:13.317Z,10.63
2019-05-30T21:21:10.717Z,11.40
2019-05-30T21:23:44.533Z,11.53
2019-05-30T21:26:26.088Z,10.90
2019-05-30T21:28:54.962Z,11.07
2019-05-30T21:31:30.363Z,11.40
2019-05-30T21:34:03.479Z,11.33
2019-05-30T21:36:33.748Z,11.77
2019-05-30T21:39:07.374Z,12.40
2019-05-30T21:41:44.179Z,12.33
2019-05-30T21:44:17.485Z,12.77
2019-05-30T21:46:48.858Z,12.67
2019-05-30T21:49:18.861Z,13.07
2019-05-30T21:51:54.068Z,15.80
2019-05-30T21:54:27.014Z,13.13
2019-05-30T21:56:56.754Z,13.47
2019-05-30T21:59:26.589Z,12.80
2019-05-30T22:01:57.730Z,14.07
2019-05-30T22:04:27.871Z,13.60
2019-05-30T22:06:57.628Z,13.17
2019-05-30T22:09:27.726Z,13.97
2019-05-30T22:11:59.374Z,14.67
2019-05-30T22:14:32.025Z,13.90
2019-05-30T22:17:01.809Z,14.13
2019-05-30T22:19:35.467Z,14.90
2019-05-30T22:22:05.293Z,15.10
2019-05-30T22:24:36.699Z,16.53
2019-05-30T22:27:07.055Z,15.67
2019-05-30T22:29:40.171Z,15.50
2019-05-30T22:32:11.366Z,16.37
2019-05-30T22:34:41.136Z,15.43
2019-05-30T22:37:14.376Z,16.43
2019-05-30T22:39:44.854Z,14.70
2019-05-30T22:42:16.067Z,15.30
2019-05-30T22:44:50.134Z,15.03
2019-05-30T22:47:20.609Z,15.37
2019-05-30T22:49:53.051Z,15.13
2019-05-30T22:52:23.114Z,15.07
2019-05-30T22:54:53.227Z,15.47
2019-05-30T22:57:24.173Z,16.07
2019-05-30T22:59:58.289Z,16.37
2019-05-30T23:02:28.079Z,17.30
2019-05-30T23:05:00.834Z,16.87
2019-05-30T23:07:34.179Z,19.50
2019-05-30T23:10:08.824Z,16.23
2019-05-30T23:12:43.347Z,16.20
2019-05-30T23:15:12.068Z,16.33
2019-05-30T23:17:43.326Z,17.47
2019-05-30T23:20:13.107Z,17.53
2019-05-30T23:22:46.794Z,17.00
2019-05-30T23:25:19.884Z,17.93
2019-05-30T23:27:50.177Z,18.37
2019-05-30T23:30:28.212Z,17.37
2019-05-30T23:32:58.378Z,16.77
2019-05-30T23:35:30.476Z,18.27
2019-05-30T23:38:00.197Z,17.40
2019-05-30T23:40:29.911Z,17.23
2019-05-30T23:43:04.107Z,17.93
2019-05-30T23:45:34.045Z,17.90
2019-05-30T23:48:03.686Z,18.10
2019-05-30T23:50:36.297Z,17.50
2019-05-30T23:53:05.960Z,16.83
2019-05-30T23:55:35.965Z,17.53
2019-05-30T23:58:10.056Z,17.97
